createdAt,value
2023-05-03T00:00:51.468Z,5.18
2023-05-03T00:03:23.829Z,5.60
2023-05-03T00:05:50.493Z,5.17
2023-05-03T00:08:17.220Z,5.28
2023-05-03T00:10:43.686Z,6.00
2023-05-03T00:13:10.217Z,5.75
2023-05-03T00:15:36.720Z,5.47
2023-05-03T00:18:03.254Z,5.97
2023-05-03T00:20:29.799Z,5.88
2023-05-03T00:22:56.281Z,6.40
2023-05-03T00:25:22.749Z,5.93
2023-05-03T00:27:49.221Z,5.60
2023-05-03T00:30:15.983Z,6.45
2023-05-03T00:32:42.520Z,7.05
2023-05-03T00:35:09.011Z,6.43
2023-05-03T00:37:36.886Z,6.45
2023-05-03T00:40:05.060Z,6.15
2023-05-03T00:42:34.326Z,5.90
2023-05-03T00:45:01.175Z,5.88
2023-05-03T00:47:27.759Z,5.88
2023-05-03T00:49:54.265Z,5.30
2023-05-03T00:52:20.802Z,6.60
2023-05-03T00:54:47.430Z,5.20
2023-05-03T00:57:14.495Z,6.00
2023-05-03T00:59:41.267Z,6.68
2023-05-03T01:02:08.445Z,6.43
2023-05-03T01:04:37.105Z,6.45
2023-05-03T01:07:11.228Z,6.63
2023-05-03T01:09:52.577Z,6.40
2023-05-03T01:12:40.837Z,7.00
2023-05-03T01:15:22.559Z,7.65
2023-05-03T01:17:59.701Z,7.65
2023-05-03T01:20:30.952Z,7.03
2023-05-03T01:23:09.963Z,7.10
2023-05-03T01:25:36.588Z,7.97
2023-05-03T01:28:03.386Z,7.90
2023-05-03T01:30:31.548Z,8.63
2023-05-03T01:33:13.200Z,7.60
2023-05-03T01:35:58.737Z,8.32
2023-05-03T01:38:27.314Z,7.53
2023-05-03T01:40:58.376Z,8.70
2023-05-03T01:43:25.798Z,8.13
2023-05-03T01:45:52.479Z,7.60
2023-05-03T01:48:19.834Z,7.82
2023-05-03T01:50:47.006Z,8.80
2023-05-03T01:53:13.889Z,7.38
2023-05-03T01:55:40.404Z,8.10
2023-05-03T01:58:06.966Z,8.25
2023-05-03T02:00:33.635Z,7.90
2023-05-03T02:03:00.245Z,7.97
2023-05-03T02:05:26.812Z,8.10
2023-05-03T02:07:53.254Z,8.05
2023-05-03T02:10:19.798Z,8.05
2023-05-03T02:12:46.765Z,7.65
2023-05-03T02:15:13.958Z,7.47
2023-05-03T02:17:43.831Z,7.80
2023-05-03T02:20:10.884Z,8.10
2023-05-03T02:22:37.548Z,7.63
2023-05-03T02:25:05.054Z,7.75
2023-05-03T02:27:31.589Z,8.98
2023-05-03T02:29:58.044Z,8.07
2023-05-03T02:32:25.645Z,8.98
2023-05-03T02:34:52.269Z,8.18
2023-05-03T02:37:18.756Z,7.93
2023-05-03T02:39:45.189Z,8.13
2023-05-03T02:42:11.641Z,8.65
2023-05-03T02:44:38.088Z,9.20
2023-05-03T02:47:04.701Z,9.10
2023-05-03T02:49:31.271Z,8.82
2023-05-03T02:51:58.227Z,7.85
2023-05-03T02:54:24.878Z,8.77
2023-05-03T02:56:51.423Z,8.70
2023-05-03T02:59:18.086Z,8.27
2023-05-03T03:01:46.631Z,8.98
2023-05-03T03:04:13.267Z,8.70
2023-05-03T03:06:39.786Z,8.77
2023-05-03T03:09:06.342Z,8.77
2023-05-03T03:11:33.298Z,8.00
2023-05-03T03:13:59.727Z,9.18
2023-05-03T03:16:26.312Z,8.10
2023-05-03T03:18:52.898Z,9.02
2023-05-03T03:21:19.432Z,8.98
2023-05-03T03:23:45.975Z,9.50
2023-05-03T03:26:12.822Z,8.60
2023-05-03T03:28:39.336Z,9.38
2023-05-03T03:31:06.074Z,8.43
2023-05-03T03:33:32.651Z,9.00
2023-05-03T03:35:59.145Z,8.95
2023-05-03T03:38:25.692Z,9.23
2023-05-03T03:40:52.781Z,9.50
2023-05-03T03:43:19.293Z,9.52
2023-05-03T03:45:45.862Z,9.20
2023-05-03T03:48:12.342Z,9.02
2023-05-03T03:50:38.884Z,8.98
2023-05-03T03:53:06.230Z,8.98
2023-05-03T03:55:32.743Z,9.43
2023-05-03T03:57:59.323Z,9.25
2023-05-03T04:00:26.162Z,9.27
2023-05-03T04:02:52.764Z,9.30
2023-05-03T04:05:19.496Z,8.52
2023-05-03T04:07:45.980Z,9.65
2023-05-03T04:10:12.530Z,9.90
2023-05-03T04:12:39.072Z,10.25
2023-05-03T04:15:06.593Z,10.80
2023-05-03T04:17:34.966Z,9.68
2023-05-03T04:20:07.973Z,10.60
2023-05-03T04:22:34.498Z,10.48
2023-05-03T04:25:03.643Z,10.07
2023-05-03T04:27:30.246Z,11.20
2023-05-03T04:29:57.206Z,11.07
2023-05-03T04:32:23.688Z,10.27
2023-05-03T04:34:53.897Z,10.15
2023-05-03T04:37:22.100Z,10.70
2023-05-03T04:39:48.618Z,11.00
2023-05-03T04:42:15.434Z,10.55
2023-05-03T04:44:43.111Z,10.90
2023-05-03T04:47:09.726Z,11.00
2023-05-03T04:49:36.550Z,11.18
2023-05-03T04:52:03.722Z,11.23
2023-05-03T04:54:30.161Z,10.48
2023-05-03T04:56:56.813Z,11.00
2023-05-03T04:59:23.338Z,10.98
2023-05-03T05:01:49.842Z,11.68
2023-05-03T05:04:16.443Z,10.60
2023-05-03T05:06:42.934Z,10.70
2023-05-03T05:09:21.362Z,10.52
2023-05-03T05:11:47.958Z,10.38
2023-05-03T05:14:14.475Z,11.38
2023-05-03T05:16:41.202Z,10.63
2023-05-03T05:19:08.518Z,10.88
2023-05-03T05:21:35.146Z,10.40
2023-05-03T05:24:01.937Z,11.95
2023-05-03T05:26:28.658Z,11.25
2023-05-03T05:28:55.141Z,11.30
2023-05-03T05:31:21.990Z,10.57
2023-05-03T05:33:48.601Z,11.77
2023-05-03T05:36:15.114Z,10.77
2023-05-03T05:38:41.860Z,11.65
2023-05-03T05:41:08.338Z,10.50
2023-05-03T05:43:34.808Z,11.13
2023-05-03T05:46:01.512Z,10.85
2023-05-03T05:48:27.961Z,11.40
2023-05-03T05:50:54.417Z,10.32
2023-05-03T05:53:20.922Z,10.93
2023-05-03T05:55:47.516Z,11.60
2023-05-03T05:58:14.030Z,11.20
2023-05-03T06:00:40.991Z,12.02
2023-05-03T06:03:07.672Z,11.02
2023-05-03T06:05:34.184Z,10.52
2023-05-03T06:08:00.693Z,10.95
2023-05-03T06:10:27.194Z,11.30
2023-05-03T06:12:53.701Z,12.00
2023-05-03T06:15:20.332Z,10.77
2023-05-03T06:17:47.262Z,11.00
2023-05-03T06:20:13.967Z,11.30
2023-05-03T06:22:40.669Z,12.10
2023-05-03T06:25:07.701Z,11.23
2023-05-03T06:27:34.203Z,11.32
2023-05-03T06:30:02.121Z,12.75
2023-05-03T06:32:28.822Z,12.77
2023-05-03T06:34:55.674Z,13.05
2023-05-03T06:37:23.019Z,12.73
2023-05-03T06:39:50.553Z,12.82
2023-05-03T06:42:16.966Z,12.30
2023-05-03T06:44:43.488Z,12.52
2023-05-03T06:47:10.000Z,13.18
2023-05-03T06:49:36.632Z,12.50
2023-05-03T06:52:03.162Z,12.98
2023-05-03T06:54:29.676Z,12.75
2023-05-03T06:56:56.163Z,13.32
2023-05-03T06:59:22.754Z,13.15
2023-05-03T07:01:50.722Z,12.70
2023-05-03T07:04:17.310Z,12.20
2023-05-03T07:06:55.372Z,11.68
2023-05-03T07:09:35.372Z,13.07
2023-05-03T07:12:08.465Z,13.15
2023-05-03T07:14:34.979Z,13.65
2023-05-03T07:17:01.495Z,12.93
2023-05-03T07:19:27.967Z,13.55
2023-05-03T07:21:54.477Z,14.48
2023-05-03T07:24:20.923Z,13.27
2023-05-03T07:26:48.983Z,13.43
2023-05-03T07:29:15.752Z,14.05
2023-05-03T07:31:42.414Z,14.15
2023-05-03T07:34:08.859Z,13.63
2023-05-03T07:36:35.399Z,14.18
2023-05-03T07:39:01.946Z,13.77
2023-05-03T07:41:28.517Z,13.50
2023-05-03T07:43:55.298Z,13.35
2023-05-03T07:46:21.927Z,12.60
2023-05-03T07:48:48.549Z,12.45
2023-05-03T07:51:15.372Z,12.68
2023-05-03T07:53:41.807Z,12.27
2023-05-03T07:56:08.307Z,12.00
2023-05-03T07:58:40.162Z,10.88
2023-05-03T08:01:07.275Z,11.60
2023-05-03T08:03:33.940Z,12.30
2023-05-03T08:06:00.826Z,10.68
2023-05-03T08:08:27.879Z,11.65
2023-05-03T08:10:54.561Z,10.20
2023-05-03T08:13:22.690Z,10.57
2023-05-03T08:15:50.186Z,9.88
2023-05-03T08:18:16.931Z,10.38
2023-05-03T08:20:44.906Z,10.52
2023-05-03T08:23:11.325Z,9.85
2023-05-03T08:25:37.893Z,10.20
2023-05-03T08:28:04.656Z,10.45
2023-05-03T08:30:31.557Z,10.43
2023-05-03T08:32:58.282Z,9.93
2023-05-03T08:35:25.368Z,9.63
2023-05-03T08:37:51.867Z,10.30
2023-05-03T08:40:22.266Z,9.88
2023-05-03T08:42:50.122Z,9.48
2023-05-03T08:45:16.917Z,9.13
2023-05-03T08:47:47.190Z,9.98
2023-05-03T08:50:15.733Z,9.48
2023-05-03T08:52:43.893Z,9.73
2023-05-03T08:55:11.145Z,9.23
2023-05-03T08:57:38.160Z,8.70
2023-05-03T09:00:06.810Z,8.52
2023-05-03T09:02:34.911Z,9.35
2023-05-03T09:05:01.898Z,9.98
2023-05-03T09:07:28.514Z,10.02
2023-05-03T09:09:55.004Z,10.75
2023-05-03T09:12:41.002Z,11.45
2023-05-03T09:15:08.848Z,11.30
2023-05-03T09:17:35.419Z,11.25
2023-05-03T09:20:02.466Z,10.85
2023-05-03T09:22:32.579Z,11.30
2023-05-03T09:25:01.001Z,10.70
2023-05-03T09:27:28.170Z,11.50
2023-05-03T09:29:55.076Z,10.75
2023-05-03T09:32:22.973Z,10.35
2023-05-03T09:34:49.629Z,10.50
2023-05-03T09:37:16.545Z,10.73
2023-05-03T09:39:45.715Z,9.82
2023-05-03T09:42:17.049Z,10.50
2023-05-03T09:44:53.824Z,9.85
2023-05-03T09:47:21.726Z,10.68
2023-05-03T09:49:48.623Z,9.90
2023-05-03T09:52:15.107Z,10.60
2023-05-03T09:54:42.337Z,9.55
2023-05-03T09:57:09.417Z,9.40
2023-05-03T09:59:38.060Z,9.75
2023-05-03T10:02:07.771Z,10.05
2023-05-03T10:04:50.788Z,9.35
2023-05-03T10:07:18.922Z,10.00
2023-05-03T10:09:48.531Z,9.95
2023-05-03T10:12:18.417Z,10.38
2023-05-03T10:14:47.051Z,9.48
2023-05-03T10:17:22.275Z,9.38
2023-05-03T10:19:55.562Z,8.77
2023-05-03T10:22:22.097Z,9.27
2023-05-03T10:24:57.422Z,8.75
2023-05-03T10:27:24.155Z,8.90
2023-05-03T10:29:51.885Z,9.35
2023-05-03T10:32:34.482Z,9.23
2023-05-03T10:35:13.886Z,8.20
2023-05-03T10:37:42.491Z,8.77
2023-05-03T10:40:11.858Z,9.82
2023-05-03T10:42:39.892Z,8.95
2023-05-03T10:45:09.889Z,9.25
2023-05-03T10:47:36.488Z,8.68
2023-05-03T10:50:11.865Z,8.98
2023-05-03T10:52:38.562Z,9.00
2023-05-03T10:55:14.140Z,8.65
2023-05-03T10:57:43.563Z,8.13
2023-05-03T11:00:16.771Z,8.63
2023-05-03T11:02:56.620Z,8.73
2023-05-03T11:05:28.424Z,8.85
2023-05-03T11:08:15.066Z,8.00
2023-05-03T11:10:41.946Z,8.77
2023-05-03T11:13:08.473Z,8.75
2023-05-03T11:15:35.214Z,7.85
2023-05-03T11:18:02.748Z,7.63
2023-05-03T11:20:30.008Z,7.45
2023-05-03T11:22:56.717Z,9.23
2023-05-03T11:25:23.246Z,8.48
2023-05-03T11:27:49.838Z,8.07
2023-05-03T11:30:16.446Z,7.18
2023-05-03T11:32:43.291Z,8.13
2023-05-03T11:35:18.650Z,7.45
2023-05-03T11:37:45.213Z,7.55
2023-05-03T11:40:17.018Z,7.43
2023-05-03T11:42:58.417Z,7.13
2023-05-03T11:45:28.355Z,5.90
2023-05-03T11:47:56.161Z,7.18
2023-05-03T11:50:51.006Z,7.28
2023-05-03T11:53:18.848Z,6.97
2023-05-03T11:55:48.179Z,7.05
2023-05-03T11:58:24.908Z,7.65
2023-05-03T12:00:53.288Z,6.32
2023-05-03T12:03:22.427Z,6.63
2023-05-03T12:05:53.146Z,6.80
2023-05-03T12:08:21.958Z,6.55
2023-05-03T12:10:50.400Z,7.00
2023-05-03T12:13:34.534Z,7.50
2023-05-03T12:18:47.359Z,6.43
2023-05-03T12:23:46.096Z,7.90
2023-05-03T12:26:14.557Z,6.90
2023-05-03T12:28:41.481Z,7.25
2023-05-03T12:31:08.235Z,7.75
2023-05-03T12:33:38.190Z,6.82
2023-05-03T12:36:09.293Z,5.72
2023-05-03T12:38:37.733Z,5.63
2023-05-03T12:43:31.437Z,7.13
2023-05-03T12:46:25.723Z,7.38
2023-05-03T12:48:47.751Z,6.65
2023-05-03T12:53:47.270Z,6.03
2023-05-03T12:56:14.639Z,6.28
2023-05-03T12:59:05.100Z,6.18
2023-05-03T13:04:31.343Z,5.38
2023-05-03T13:06:47.012Z,4.57
2023-05-03T13:09:20.736Z,5.22
2023-05-03T13:11:49.953Z,5.65
2023-05-03T13:14:16.945Z,5.70
2023-05-03T13:16:45.784Z,4.72
2023-05-03T13:19:16.190Z,4.82
2023-05-03T13:21:42.770Z,6.25
2023-05-03T13:24:09.518Z,3.42
2023-05-03T13:26:36.195Z,1.25
2023-05-03T13:29:02.721Z,1.20
2023-05-03T13:31:30.294Z,1.40
2023-05-03T13:33:57.320Z,1.67
2023-05-03T13:36:24.332Z,1.40
2023-05-03T13:38:51.781Z,1.23
2023-05-03T13:41:18.919Z,1.65
2023-05-03T13:43:45.863Z,2.05
2023-05-03T13:46:12.613Z,1.30
2023-05-03T13:48:39.690Z,1.05
2023-05-03T13:51:10.718Z,1.35
2023-05-03T13:53:37.355Z,1.63
2023-05-03T13:56:04.577Z,1.30
2023-05-03T13:58:31.174Z,1.00
2023-05-03T14:00:57.846Z,1.20
2023-05-03T14:03:24.475Z,1.13
2023-05-03T14:05:51.033Z,1.58
2023-05-03T14:08:17.601Z,1.27
2023-05-03T14:10:44.325Z,1.15
2023-05-03T14:13:11.381Z,1.52
2023-05-03T14:15:43.148Z,1.40
2023-05-03T14:18:10.197Z,1.30
2023-05-03T14:20:37.077Z,1.33
2023-05-03T14:23:03.864Z,1.45
2023-05-03T14:25:30.940Z,1.45
2023-05-03T14:27:57.493Z,1.75
2023-05-03T14:30:24.294Z,1.27
2023-05-03T14:32:51.154Z,1.05
2023-05-03T14:35:20.770Z,1.35
2023-05-03T14:37:47.352Z,1.35
2023-05-03T14:40:14.421Z,1.70
2023-05-03T14:42:41.147Z,1.70
2023-05-03T14:45:10.932Z,1.50
2023-05-03T14:47:39.292Z,1.30
2023-05-03T14:50:06.509Z,1.70
2023-05-03T14:52:35.596Z,1.65
2023-05-03T14:55:09.782Z,2.28
2023-05-03T14:57:38.053Z,1.95
2023-05-03T15:00:07.563Z,1.90
2023-05-03T15:02:34.448Z,1.50
2023-05-03T15:05:01.272Z,1.48
2023-05-03T15:07:28.151Z,1.58
2023-05-03T15:09:54.616Z,1.45
2023-05-03T15:12:21.051Z,1.58
2023-05-03T15:14:48.124Z,1.27
2023-05-03T15:17:14.684Z,1.13
2023-05-03T15:19:41.421Z,1.50
2023-05-03T15:22:08.083Z,1.67
2023-05-03T15:24:34.695Z,1.40
2023-05-03T15:27:02.863Z,1.77
2023-05-03T15:29:29.388Z,1.70
2023-05-03T15:31:56.073Z,1.40
2023-05-03T15:34:22.560Z,1.75
2023-05-03T15:36:49.070Z,1.42
2023-05-03T15:39:15.656Z,1.80
2023-05-03T15:41:42.119Z,1.88
2023-05-03T15:44:09.823Z,1.65
2023-05-03T15:46:36.741Z,1.42
2023-05-03T15:49:03.594Z,1.50
2023-05-03T15:51:30.095Z,1.75
2023-05-03T15:53:56.640Z,1.33
2023-05-03T15:56:23.347Z,1.33
2023-05-03T15:58:50.077Z,1.50
2023-05-03T16:01:16.756Z,1.70
2023-05-03T16:03:43.311Z,1.50
2023-05-03T16:06:09.782Z,1.50
2023-05-03T16:08:36.860Z,1.58
2023-05-03T16:11:03.639Z,1.60
2023-05-03T16:13:30.242Z,1.50
2023-05-03T16:15:57.027Z,2.05
2023-05-03T16:18:24.411Z,1.60
2023-05-03T16:20:51.225Z,1.88
2023-05-03T16:23:17.757Z,1.70
2023-05-03T16:25:44.343Z,1.90
2023-05-03T16:28:11.024Z,2.22
2023-05-03T16:30:39.856Z,1.75
2023-05-03T16:33:06.673Z,1.60
2023-05-03T16:35:33.231Z,1.70
2023-05-03T16:38:00.009Z,1.85
2023-05-03T16:40:27.052Z,1.92
2023-05-03T16:42:55.677Z,1.70
2023-05-03T16:45:22.417Z,1.77
2023-05-03T16:47:48.979Z,1.95
2023-05-03T16:50:17.383Z,1.70
2023-05-03T16:52:44.509Z,1.65
2023-05-03T16:55:12.542Z,2.03
2023-05-03T16:57:39.952Z,1.60
2023-05-03T17:00:09.296Z,1.60
2023-05-03T17:02:37.881Z,1.75
2023-05-03T17:05:05.758Z,1.65
2023-05-03T17:07:33.109Z,1.63
2023-05-03T17:10:01.044Z,1.90
2023-05-03T17:12:28.021Z,1.95
2023-05-03T17:14:54.986Z,1.80
2023-05-03T17:17:22.284Z,1.60
2023-05-03T17:19:48.789Z,1.60
2023-05-03T17:22:15.259Z,1.48
2023-05-03T17:24:41.760Z,1.70
2023-05-03T17:27:08.835Z,1.40
2023-05-03T17:29:35.734Z,1.40
2023-05-03T17:32:03.254Z,1.90
2023-05-03T17:34:29.889Z,1.85
2023-05-03T17:36:59.041Z,1.75
2023-05-03T17:39:25.638Z,1.50
2023-05-03T17:41:52.059Z,1.80
2023-05-03T17:44:19.053Z,1.63
2023-05-03T17:46:46.047Z,1.73
2023-05-03T17:49:12.624Z,2.10
2023-05-03T17:51:39.082Z,1.80
2023-05-03T17:54:05.808Z,1.75
2023-05-03T17:56:32.309Z,2.42
2023-05-03T17:58:58.819Z,2.13
2023-05-03T18:01:25.505Z,2.63
2023-05-03T18:03:52.214Z,1.50
2023-05-03T18:06:18.902Z,2.15
2023-05-03T18:08:45.459Z,1.88
2023-05-03T18:11:12.113Z,1.80
2023-05-03T18:13:39.648Z,2.33
2023-05-03T18:16:09.510Z,1.90
2023-05-03T18:18:36.106Z,2.20
2023-05-03T18:21:04.585Z,2.15
2023-05-03T18:23:32.584Z,1.98
2023-05-03T18:26:00.047Z,2.90
2023-05-03T18:28:27.636Z,2.72
2023-05-03T18:30:55.791Z,2.53
2023-05-03T18:33:22.428Z,2.22
2023-05-03T18:35:50.055Z,2.55
2023-05-03T18:38:18.952Z,2.13
2023-05-03T18:40:46.886Z,2.58
2023-05-03T18:43:13.615Z,3.70
2023-05-03T18:45:40.388Z,2.40
2023-05-03T18:48:07.668Z,2.60
2023-05-03T18:50:35.963Z,2.80
2023-05-03T18:53:02.408Z,2.58
2023-05-03T18:55:28.853Z,3.65
2023-05-03T18:57:55.463Z,3.85
2023-05-03T19:00:22.016Z,4.65
2023-05-03T19:02:48.589Z,2.92
2023-05-03T19:05:15.473Z,2.55
2023-05-03T19:07:43.070Z,3.60
2023-05-03T19:10:10.478Z,3.40
2023-05-03T19:12:37.011Z,3.42
2023-05-03T19:15:03.724Z,2.72
2023-05-03T19:17:30.284Z,3.60
2023-05-03T19:19:56.842Z,2.40
2023-05-03T19:22:23.511Z,2.53
2023-05-03T19:24:49.976Z,2.30
2023-05-03T19:27:17.562Z,2.15
2023-05-03T19:29:44.323Z,2.30
2023-05-03T19:32:11.957Z,2.78
2023-05-03T19:34:38.487Z,2.35
2023-05-03T19:37:05.130Z,2.53
2023-05-03T19:39:35.500Z,2.13
2023-05-03T19:42:02.387Z,2.30
2023-05-03T19:44:30.075Z,2.60
2023-05-03T19:46:56.894Z,2.17
2023-05-03T19:49:26.475Z,2.05
2023-05-03T19:51:54.027Z,2.70
2023-05-03T19:54:22.714Z,2.22
2023-05-03T19:56:50.298Z,3.17
2023-05-03T19:59:16.822Z,2.60
2023-05-03T20:01:45.175Z,2.20
2023-05-03T20:04:11.946Z,2.67
2023-05-03T20:06:38.869Z,2.83
2023-05-03T20:09:05.758Z,2.50
2023-05-03T20:11:32.274Z,2.30
2023-05-03T20:13:58.729Z,2.80
2023-05-03T20:16:27.293Z,2.95
2023-05-03T20:18:54.016Z,2.90
2023-05-03T20:21:20.519Z,2.65
2023-05-03T20:23:49.603Z,2.70
2023-05-03T20:26:16.331Z,2.92
2023-05-03T20:28:42.809Z,2.90
2023-05-03T20:31:10.950Z,3.00
2023-05-03T20:33:37.582Z,3.08
2023-05-03T20:36:04.366Z,2.80
2023-05-03T20:38:30.831Z,2.90
2023-05-03T20:40:57.391Z,3.20
2023-05-03T20:43:23.917Z,3.58
2023-05-03T20:45:50.502Z,3.47
2023-05-03T20:48:17.382Z,3.28
2023-05-03T20:50:43.938Z,3.33
2023-05-03T20:53:10.436Z,3.55
2023-05-03T20:55:38.548Z,2.97
2023-05-03T20:58:05.121Z,3.17
2023-05-03T21:00:31.753Z,3.30
2023-05-03T21:02:58.359Z,3.13
2023-05-03T21:05:24.953Z,4.35
2023-05-03T21:07:51.622Z,3.55
2023-05-03T21:10:18.113Z,3.42
2023-05-03T21:12:44.656Z,4.10
2023-05-03T21:15:11.461Z,4.07
2023-05-03T21:17:37.979Z,3.33
2023-05-03T21:20:05.927Z,3.72
2023-05-03T21:22:32.799Z,3.70
2023-05-03T21:24:59.318Z,3.83
2023-05-03T21:27:25.750Z,4.07
2023-05-03T21:29:52.260Z,3.92
2023-05-03T21:32:18.711Z,3.70
2023-05-03T21:34:45.885Z,3.78
2023-05-03T21:37:12.487Z,3.72
2023-05-03T21:39:39.594Z,3.72
2023-05-03T21:42:06.464Z,3.88
2023-05-03T21:44:32.961Z,3.28
2023-05-03T21:47:00.037Z,3.85
2023-05-03T21:49:26.725Z,3.85
2023-05-03T21:51:53.768Z,3.75
2023-05-03T21:54:20.819Z,3.53
2023-05-03T21:56:48.080Z,3.63
2023-05-03T21:59:15.176Z,3.75
2023-05-03T22:01:41.847Z,4.57
2023-05-03T22:04:08.632Z,4.05
2023-05-03T22:06:35.550Z,3.67
2023-05-03T22:09:02.194Z,3.53
2023-05-03T22:11:28.889Z,4.38
2023-05-03T22:14:06.790Z,4.28
2023-05-03T22:16:34.548Z,3.78
2023-05-03T22:19:01.109Z,4.03
2023-05-03T22:21:27.562Z,3.85
2023-05-03T22:23:54.083Z,4.05
2023-05-03T22:26:20.591Z,4.00
2023-05-03T22:28:47.082Z,4.35
2023-05-03T22:31:13.703Z,4.00
2023-05-03T22:33:40.390Z,3.70
2023-05-03T22:36:07.312Z,4.53
2023-05-03T22:38:33.748Z,3.83
2023-05-03T22:41:00.209Z,3.80
2023-05-03T22:43:26.797Z,3.97
2023-05-03T22:45:53.366Z,4.13
2023-05-03T22:48:19.867Z,4.32
2023-05-03T22:50:46.325Z,3.60
2023-05-03T22:53:12.871Z,3.40
2023-05-03T22:55:39.303Z,3.85
2023-05-03T22:58:06.043Z,4.30
2023-05-03T23:00:33.033Z,4.00
2023-05-03T23:02:59.616Z,3.70
2023-05-03T23:05:26.296Z,4.03
2023-05-03T23:07:52.749Z,4.32
2023-05-03T23:10:19.306Z,4.00
2023-05-03T23:12:45.977Z,4.55
2023-05-03T23:15:12.617Z,3.80
2023-05-03T23:17:39.164Z,3.75
2023-05-03T23:20:06.584Z,4.00
2023-05-03T23:22:33.251Z,4.75
2023-05-03T23:24:59.927Z,3.90
2023-05-03T23:27:26.895Z,4.22
2023-05-03T23:29:53.810Z,4.35
2023-05-03T23:32:21.031Z,4.25
2023-05-03T23:34:48.033Z,4.55
2023-05-03T23:37:14.529Z,4.32
2023-05-03T23:39:44.829Z,3.70
2023-05-03T23:42:12.869Z,4.30
2023-05-03T23:44:53.761Z,4.50
2023-05-03T23:47:22.058Z,4.57
2023-05-03T23:49:48.626Z,4.68
2023-05-03T23:52:16.953Z,4.15
2023-05-03T23:54:43.576Z,4.13
2023-05-03T23:57:10.283Z,4.13
2023-05-03T23:59:36.711Z,4.13
